createdAt,value
2023-03-07T00:02:17.206Z,12.70
2023-03-07T00:04:46.479Z,12.15
2023-03-07T00:07:14.359Z,11.13
2023-03-07T00:09:43.562Z,12.98
2023-03-07T00:12:12.018Z,15.95
2023-03-07T00:14:39.739Z,18.38
2023-03-07T00:17:07.558Z,16.63
2023-03-07T00:19:35.345Z,15.93
2023-03-07T00:22:03.136Z,14.50
2023-03-07T00:24:30.832Z,15.30
2023-03-07T00:27:03.396Z,15.70
2023-03-07T00:29:31.272Z,18.85
2023-03-07T00:31:59.003Z,16.10
2023-03-07T00:34:26.694Z,14.07
2023-03-07T00:36:54.591Z,13.27
2023-03-07T00:39:22.300Z,13.55
2023-03-07T00:41:52.646Z,13.55
2023-03-07T00:44:22.398Z,12.50
2023-03-07T00:46:50.064Z,12.88
2023-03-07T00:49:17.782Z,13.07
2023-03-07T00:51:47.821Z,13.52
2023-03-07T00:54:15.672Z,14.10
2023-03-07T00:56:43.385Z,13.55
2023-03-07T00:59:11.262Z,14.73
2023-03-07T01:01:40.302Z,17.83
2023-03-07T01:04:08.031Z,15.68
2023-03-07T01:06:36.366Z,16.13
2023-03-07T01:09:08.616Z,17.23
2023-03-07T01:11:37.691Z,16.20
2023-03-07T01:14:06.958Z,15.27
2023-03-07T01:16:36.319Z,12.95
2023-03-07T01:19:07.064Z,13.90
2023-03-07T01:21:37.563Z,13.25
2023-03-07T01:24:06.379Z,12.95
2023-03-07T01:26:34.694Z,12.25
2023-03-07T01:29:04.335Z,13.02
2023-03-07T01:31:32.616Z,12.75
2023-03-07T01:34:02.213Z,12.90
2023-03-07T01:36:33.564Z,12.48
2023-03-07T01:39:06.486Z,12.55
2023-03-07T01:41:34.724Z,13.00
2023-03-07T01:44:05.282Z,12.52
2023-03-07T01:46:44.917Z,11.95
2023-03-07T01:49:18.716Z,11.38
2023-03-07T01:51:50.408Z,12.68
2023-03-07T01:54:23.071Z,12.18
2023-03-07T01:56:51.505Z,11.48
2023-03-07T01:59:24.519Z,12.93
2023-03-07T02:01:53.102Z,12.30
2023-03-07T02:04:26.547Z,11.15
2023-03-07T02:06:55.616Z,12.25
2023-03-07T02:09:29.118Z,11.32
2023-03-07T02:11:57.866Z,12.10
2023-03-07T02:14:26.044Z,11.73
2023-03-07T02:16:54.496Z,11.73
2023-03-07T02:19:34.427Z,11.93
2023-03-07T02:22:10.660Z,11.88
2023-03-07T02:24:46.557Z,11.35
2023-03-07T02:27:15.992Z,11.30
2023-03-07T02:29:46.758Z,11.95
2023-03-07T02:32:18.545Z,10.68
2023-03-07T02:34:46.276Z,12.15
2023-03-07T02:37:17.482Z,11.15
2023-03-07T02:39:47.250Z,11.73
2023-03-07T02:42:19.865Z,11.73
2023-03-07T02:44:48.341Z,10.82
2023-03-07T02:47:15.999Z,11.73
2023-03-07T02:49:43.673Z,10.70
2023-03-07T02:52:11.328Z,11.18
2023-03-07T02:54:41.753Z,10.77
2023-03-07T02:57:10.555Z,10.75
2023-03-07T02:59:39.653Z,10.43
2023-03-07T03:02:07.379Z,11.27
2023-03-07T03:04:35.365Z,10.25
2023-03-07T03:07:03.194Z,11.45
2023-03-07T03:09:31.494Z,11.65
2023-03-07T03:11:59.803Z,11.55
2023-03-07T03:14:27.555Z,11.63
2023-03-07T03:16:56.625Z,11.05
2023-03-07T03:19:24.296Z,10.57
2023-03-07T03:21:52.063Z,10.73
2023-03-07T03:24:19.736Z,10.60
2023-03-07T03:26:47.428Z,11.30
2023-03-07T03:29:15.110Z,10.07
2023-03-07T03:31:42.793Z,10.15
2023-03-07T03:34:14.436Z,10.40
2023-03-07T03:36:42.101Z,10.38
2023-03-07T03:39:11.082Z,10.25
2023-03-07T03:41:39.133Z,10.77
2023-03-07T03:44:06.812Z,10.38
2023-03-07T03:46:37.006Z,10.48
2023-03-07T03:49:05.451Z,11.35
2023-03-07T03:51:34.575Z,10.38
2023-03-07T03:54:03.289Z,10.38
2023-03-07T03:56:30.990Z,10.57
2023-03-07T03:58:59.235Z,10.98
2023-03-07T04:01:30.183Z,10.75
2023-03-07T04:03:58.935Z,10.82
2023-03-07T04:06:28.446Z,11.15
2023-03-07T04:08:58.329Z,11.10
2023-03-07T04:11:28.174Z,10.82
2023-03-07T04:13:56.109Z,11.38
2023-03-07T04:16:24.055Z,11.27
2023-03-07T04:18:52.413Z,10.70
2023-03-07T04:21:20.662Z,11.25
2023-03-07T04:23:49.604Z,11.40
2023-03-07T04:26:18.773Z,11.43
2023-03-07T04:28:46.479Z,12.00
2023-03-07T04:31:16.014Z,11.68
2023-03-07T04:33:46.356Z,11.32
2023-03-07T04:36:14.901Z,10.80
2023-03-07T04:38:42.761Z,11.82
2023-03-07T04:41:13.696Z,12.75
2023-03-07T04:43:43.056Z,11.25
2023-03-07T04:46:12.169Z,12.45
2023-03-07T04:48:39.949Z,10.90
2023-03-07T04:51:08.086Z,11.65
2023-03-07T04:53:35.948Z,11.27
2023-03-07T04:56:06.546Z,13.02
2023-03-07T04:58:35.197Z,13.40
2023-03-07T05:01:05.542Z,12.88
2023-03-07T05:03:33.826Z,13.10
2023-03-07T05:06:03.889Z,12.32
2023-03-07T05:08:31.901Z,12.38
2023-03-07T05:10:59.650Z,14.00
2023-03-07T05:13:27.381Z,13.88
2023-03-07T05:15:57.148Z,13.73
2023-03-07T05:18:26.982Z,12.43
2023-03-07T05:20:54.810Z,14.15
2023-03-07T05:23:22.724Z,13.32
2023-03-07T05:25:51.277Z,14.82
2023-03-07T05:28:23.627Z,13.27
2023-03-07T05:30:54.399Z,13.80
2023-03-07T05:33:22.330Z,14.40
2023-03-07T05:35:52.193Z,13.63
2023-03-07T05:38:19.873Z,14.50
2023-03-07T05:40:47.633Z,14.32
2023-03-07T05:43:15.276Z,14.13
2023-03-07T05:45:42.923Z,15.35
2023-03-07T05:48:10.616Z,13.95
2023-03-07T05:50:39.437Z,14.55
2023-03-07T05:53:08.524Z,15.07
2023-03-07T05:55:36.378Z,14.95
2023-03-07T05:58:04.054Z,15.15
2023-03-07T06:00:31.927Z,15.15
2023-03-07T06:02:59.687Z,17.05
2023-03-07T06:05:27.394Z,14.88
2023-03-07T06:07:55.161Z,16.20
2023-03-07T06:10:24.468Z,15.20
2023-03-07T06:12:52.315Z,14.82
2023-03-07T06:15:20.476Z,14.35
2023-03-07T06:17:52.540Z,15.52
2023-03-07T06:20:21.755Z,15.32
2023-03-07T06:22:49.707Z,15.13
2023-03-07T06:25:17.709Z,14.32
2023-03-07T06:27:46.752Z,13.43
2023-03-07T06:30:15.028Z,14.48
2023-03-07T06:32:42.778Z,15.05
2023-03-07T06:35:11.338Z,14.55
2023-03-07T06:37:38.994Z,14.45
2023-03-07T06:40:09.543Z,15.85
2023-03-07T06:42:41.798Z,14.82
2023-03-07T06:45:11.430Z,15.35
2023-03-07T06:47:39.112Z,14.73
2023-03-07T06:50:07.864Z,15.77
2023-03-07T06:52:35.531Z,15.05
2023-03-07T06:55:03.548Z,15.63
2023-03-07T06:57:33.389Z,13.70
2023-03-07T07:00:01.107Z,15.80
2023-03-07T07:02:30.192Z,15.50
2023-03-07T07:05:01.454Z,15.30
2023-03-07T07:07:29.256Z,17.05
2023-03-07T07:09:59.669Z,15.55
2023-03-07T07:12:27.347Z,14.43
2023-03-07T07:14:55.028Z,15.30
2023-03-07T07:17:22.830Z,14.20
2023-03-07T07:19:51.877Z,15.27
2023-03-07T07:22:19.529Z,14.85
2023-03-07T07:24:47.156Z,14.82
2023-03-07T07:27:14.789Z,14.65
2023-03-07T07:29:42.448Z,14.20
2023-03-07T07:32:10.434Z,14.88
2023-03-07T07:34:38.181Z,15.48
2023-03-07T07:37:08.413Z,14.02
2023-03-07T07:39:36.109Z,14.05
2023-03-07T07:42:03.875Z,14.20
2023-03-07T07:44:31.884Z,14.30
2023-03-07T07:46:59.881Z,13.85
2023-03-07T07:49:27.657Z,13.50
2023-03-07T07:51:55.311Z,12.00
2023-03-07T07:54:24.391Z,12.82
2023-03-07T07:56:52.181Z,12.07
2023-03-07T07:59:21.580Z,11.40
2023-03-07T08:01:49.241Z,12.48
2023-03-07T08:04:16.940Z,12.52
2023-03-07T08:06:44.954Z,11.68
2023-03-07T08:09:12.773Z,11.10
2023-03-07T08:11:42.601Z,11.05
2023-03-07T08:14:10.456Z,10.60
2023-03-07T08:16:38.168Z,10.32
2023-03-07T08:19:05.972Z,10.90
2023-03-07T08:21:33.740Z,10.88
2023-03-07T08:24:02.369Z,10.20
2023-03-07T08:26:30.171Z,10.98
2023-03-07T08:28:59.712Z,11.52
2023-03-07T08:31:27.490Z,9.68
2023-03-07T08:33:55.178Z,10.82
2023-03-07T08:36:23.188Z,10.35
2023-03-07T08:38:52.489Z,9.07
2023-03-07T08:41:22.199Z,9.77
2023-03-07T08:43:50.132Z,9.90
2023-03-07T08:46:19.322Z,10.70
2023-03-07T08:48:47.047Z,9.98
2023-03-07T08:51:17.161Z,9.40
2023-03-07T08:53:47.382Z,10.98
2023-03-07T08:56:16.697Z,9.75
2023-03-07T08:58:44.585Z,10.80
2023-03-07T09:01:12.952Z,9.60
2023-03-07T09:03:43.419Z,9.52
2023-03-07T09:06:16.963Z,9.90
2023-03-07T09:08:44.844Z,10.07
2023-03-07T09:11:12.725Z,9.63
2023-03-07T09:13:51.045Z,10.05
2023-03-07T09:16:20.294Z,10.30
2023-03-07T09:18:49.446Z,10.27
2023-03-07T09:21:17.099Z,9.73
2023-03-07T09:23:45.049Z,9.98
2023-03-07T09:26:14.692Z,10.88
2023-03-07T09:28:42.636Z,9.90
2023-03-07T09:31:11.277Z,10.30
2023-03-07T09:33:39.046Z,11.30
2023-03-07T09:36:10.656Z,10.52
2023-03-07T09:38:38.755Z,10.38
2023-03-07T09:41:16.677Z,10.63
2023-03-07T09:43:49.762Z,10.50
2023-03-07T09:46:31.175Z,10.75
2023-03-07T09:49:18.630Z,10.10
2023-03-07T09:51:51.611Z,10.73
2023-03-07T09:54:22.658Z,9.70
2023-03-07T09:56:55.549Z,10.40
2023-03-07T09:59:32.608Z,9.68
2023-03-07T10:02:06.433Z,10.70
2023-03-07T10:04:44.206Z,10.68
2023-03-07T10:07:16.622Z,11.27
2023-03-07T10:09:45.815Z,10.60
2023-03-07T10:12:27.069Z,10.88
2023-03-07T10:15:06.356Z,11.45
2023-03-07T10:17:52.425Z,10.52
2023-03-07T10:20:25.474Z,11.15
2023-03-07T10:23:02.118Z,11.48
2023-03-07T10:25:33.242Z,10.55
2023-03-07T10:28:11.448Z,10.57
2023-03-07T10:30:39.182Z,11.05
2023-03-07T10:33:16.856Z,11.10
2023-03-07T10:35:48.895Z,10.85
2023-03-07T10:38:25.661Z,11.10
2023-03-07T10:40:56.183Z,11.15
2023-03-07T10:43:26.110Z,10.70
2023-03-07T10:45:59.777Z,10.75
2023-03-07T10:48:29.267Z,10.70
2023-03-07T10:51:07.981Z,11.05
2023-03-07T10:53:40.310Z,11.57
2023-03-07T10:56:14.442Z,11.15
2023-03-07T10:59:00.474Z,11.02
2023-03-07T11:04:00.527Z,9.98
2023-03-07T11:06:36.982Z,11.10
2023-03-07T11:09:17.791Z,11.20
2023-03-07T11:11:51.520Z,11.25
2023-03-07T11:14:21.801Z,11.43
2023-03-07T11:16:51.676Z,10.98
2023-03-07T11:19:35.489Z,11.85
2023-03-07T11:22:05.261Z,10.80
2023-03-07T11:24:39.540Z,10.88
2023-03-07T11:27:07.814Z,11.20
2023-03-07T11:29:35.570Z,11.18
2023-03-07T11:32:15.056Z,11.02
2023-03-07T11:34:47.204Z,11.38
2023-03-07T11:37:35.553Z,11.52
2023-03-07T11:40:20.007Z,11.23
2023-03-07T11:43:01.583Z,11.50
2023-03-07T11:45:35.693Z,11.63
2023-03-07T11:48:16.759Z,11.70
2023-03-07T11:50:51.898Z,11.80
2023-03-07T11:53:43.025Z,11.50
2023-03-07T11:56:25.641Z,11.95
2023-03-07T11:59:13.129Z,11.75
2023-03-07T12:01:48.350Z,11.65
2023-03-07T12:04:44.289Z,11.75
2023-03-07T12:07:28.378Z,12.35
2023-03-07T12:10:00.752Z,11.88
2023-03-07T12:12:50.344Z,11.88
2023-03-07T12:15:29.139Z,12.45
2023-03-07T12:18:12.931Z,11.48
2023-03-07T12:20:49.348Z,12.65
2023-03-07T12:23:23.139Z,13.32
2023-03-07T12:25:53.948Z,12.07
2023-03-07T12:28:28.798Z,12.68
2023-03-07T12:31:03.500Z,11.88
2023-03-07T12:33:48.513Z,12.07
2023-03-07T12:36:22.674Z,12.43
2023-03-07T12:38:55.691Z,12.27
2023-03-07T12:41:36.656Z,12.85
2023-03-07T12:44:11.721Z,13.02
2023-03-07T12:46:45.863Z,12.43
2023-03-07T12:49:18.340Z,12.88
2023-03-07T12:51:50.535Z,12.48
2023-03-07T12:54:25.182Z,12.02
2023-03-07T12:56:58.363Z,12.90
2023-03-07T12:59:30.164Z,12.20
2023-03-07T13:02:03.589Z,11.40
2023-03-07T13:04:34.585Z,12.40
2023-03-07T13:07:09.580Z,12.35
2023-03-07T13:09:40.431Z,11.75
2023-03-07T13:12:33.967Z,12.35
2023-03-07T13:15:04.005Z,11.23
2023-03-07T13:17:59.426Z,12.80
2023-03-07T13:20:40.193Z,12.00
2023-03-07T13:23:30.037Z,11.10
2023-03-07T13:26:19.783Z,11.20
2023-03-07T13:28:52.437Z,11.93
2023-03-07T13:31:45.720Z,11.20
2023-03-07T13:34:51.212Z,11.07
2023-03-07T13:37:50.018Z,11.52
2023-03-07T13:40:46.349Z,10.75
2023-03-07T13:44:02.096Z,11.55
2023-03-07T13:47:04.972Z,11.63
2023-03-07T13:49:35.636Z,11.02
2023-03-07T13:52:33.104Z,10.82
2023-03-07T13:55:03.016Z,11.45
2023-03-07T13:57:38.303Z,10.35
2023-03-07T14:00:35.394Z,10.82
2023-03-07T14:03:10.994Z,10.48
2023-03-07T14:05:38.893Z,10.32
2023-03-07T14:08:11.009Z,10.20
2023-03-07T14:10:40.189Z,10.73
2023-03-07T14:13:23.919Z,10.27
2023-03-07T14:16:06.990Z,10.15
2023-03-07T14:18:48.642Z,10.90
2023-03-07T14:21:28.067Z,10.50
2023-03-07T14:24:09.430Z,10.75
2023-03-07T14:26:40.126Z,10.38
2023-03-07T14:29:16.860Z,12.18
2023-03-07T14:31:45.205Z,11.02
2023-03-07T14:34:28.392Z,11.15
2023-03-07T14:36:58.681Z,10.80
2023-03-07T14:39:32.428Z,10.68
2023-03-07T14:42:12.388Z,10.20
2023-03-07T14:45:05.514Z,10.70
2023-03-07T14:47:46.882Z,11.10
2023-03-07T14:50:19.752Z,10.50
2023-03-07T14:52:49.725Z,11.18
2023-03-07T14:55:19.844Z,11.00
2023-03-07T14:57:49.867Z,11.40
2023-03-07T15:00:28.777Z,11.68
2023-03-07T15:02:58.176Z,11.52
2023-03-07T15:05:30.074Z,11.07
2023-03-07T15:07:57.830Z,11.35
2023-03-07T15:10:29.870Z,10.40
2023-03-07T15:12:58.759Z,11.10
2023-03-07T15:15:31.307Z,10.40
2023-03-07T15:18:05.126Z,10.48
2023-03-07T15:20:35.645Z,10.95
2023-03-07T15:23:07.502Z,10.75
2023-03-07T15:25:38.915Z,10.25
2023-03-07T15:28:19.688Z,10.20
2023-03-07T15:30:51.116Z,10.57
2023-03-07T15:33:25.995Z,10.02
2023-03-07T15:36:27.541Z,9.52
2023-03-07T15:39:24.938Z,10.18
2023-03-07T15:42:01.377Z,9.77
2023-03-07T15:44:29.147Z,9.68
2023-03-07T15:46:59.695Z,10.70
2023-03-07T15:49:32.143Z,9.52
2023-03-07T15:52:01.697Z,9.80
2023-03-07T15:54:40.380Z,10.02
2023-03-07T15:57:17.194Z,10.90
2023-03-07T15:59:51.280Z,9.85
2023-03-07T16:02:44.776Z,11.13
2023-03-07T16:05:36.054Z,10.30
2023-03-07T16:08:12.694Z,9.88
2023-03-07T16:10:46.557Z,10.07
2023-03-07T16:13:17.777Z,10.02
2023-03-07T16:15:45.746Z,10.30
2023-03-07T16:18:28.709Z,11.07
2023-03-07T16:20:56.840Z,10.57
2023-03-07T16:23:28.113Z,10.40
2023-03-07T16:25:56.350Z,11.68
2023-03-07T16:28:24.189Z,11.18
2023-03-07T16:30:51.939Z,11.05
2023-03-07T16:33:19.724Z,11.20
2023-03-07T16:35:47.725Z,11.32
2023-03-07T16:38:15.488Z,10.65
2023-03-07T16:40:46.094Z,11.40
2023-03-07T16:43:33.518Z,11.25
2023-03-07T16:46:02.506Z,10.18
2023-03-07T16:48:30.248Z,10.80
2023-03-07T16:50:58.137Z,10.48
2023-03-07T16:53:26.653Z,9.70
2023-03-07T16:55:57.076Z,10.98
2023-03-07T16:58:29.346Z,10.77
2023-03-07T17:00:59.003Z,9.57
2023-03-07T17:03:27.627Z,9.80
2023-03-07T17:05:55.372Z,10.68
2023-03-07T17:08:23.042Z,10.65
2023-03-07T17:10:52.173Z,10.10
2023-03-07T17:13:21.331Z,10.82
2023-03-07T17:15:49.970Z,10.00
2023-03-07T17:18:17.748Z,11.25
2023-03-07T17:20:45.478Z,11.20
2023-03-07T17:23:13.175Z,10.82
2023-03-07T17:25:41.403Z,11.70
2023-03-07T17:28:13.168Z,11.95
2023-03-07T17:30:45.002Z,11.55
2023-03-07T17:33:14.975Z,11.23
2023-03-07T17:35:42.871Z,11.43
2023-03-07T17:38:10.619Z,10.77
2023-03-07T17:40:38.741Z,12.70
2023-03-07T17:43:06.540Z,11.27
2023-03-07T17:45:34.261Z,10.73
2023-03-07T17:48:03.463Z,11.35
2023-03-07T17:50:31.184Z,10.95
2023-03-07T17:52:59.355Z,11.32
2023-03-07T17:55:27.066Z,10.98
2023-03-07T17:57:54.790Z,11.13
2023-03-07T18:00:23.635Z,11.95
2023-03-07T18:02:51.641Z,12.13
2023-03-07T18:05:21.046Z,12.02
2023-03-07T18:07:51.382Z,12.35
2023-03-07T18:10:19.175Z,12.45
2023-03-07T18:12:47.308Z,11.82
2023-03-07T18:15:17.301Z,11.15
2023-03-07T18:17:48.796Z,11.95
2023-03-07T18:20:18.058Z,13.35
2023-03-07T18:22:47.212Z,13.02
2023-03-07T18:25:16.652Z,12.40
2023-03-07T18:27:45.067Z,12.43
2023-03-07T18:30:14.146Z,12.73
2023-03-07T18:32:41.990Z,11.30
2023-03-07T18:35:10.678Z,12.48
2023-03-07T18:37:38.610Z,12.75
2023-03-07T18:40:09.455Z,12.50
2023-03-07T18:42:37.141Z,12.10
2023-03-07T18:45:05.201Z,11.77
2023-03-07T18:47:32.937Z,13.15
2023-03-07T18:50:00.623Z,10.48
2023-03-07T18:52:28.383Z,11.27
2023-03-07T18:54:56.066Z,9.60
2023-03-07T18:57:25.166Z,10.18
2023-03-07T18:59:52.908Z,10.45
2023-03-07T19:02:20.655Z,10.35
2023-03-07T19:04:48.461Z,10.30
2023-03-07T19:07:16.183Z,10.63
2023-03-07T19:09:44.997Z,10.15
2023-03-07T19:12:13.937Z,10.43
2023-03-07T19:14:43.263Z,10.90
2023-03-07T19:17:11.032Z,10.02
2023-03-07T19:19:38.856Z,10.25
2023-03-07T19:22:07.825Z,10.80
2023-03-07T19:24:35.611Z,11.13
2023-03-07T19:27:06.488Z,11.00
2023-03-07T19:29:34.919Z,11.55
2023-03-07T19:32:04.247Z,10.25
2023-03-07T19:34:32.223Z,9.90
2023-03-07T19:37:00.116Z,9.63
2023-03-07T19:39:27.921Z,9.50
2023-03-07T19:41:55.726Z,10.40
2023-03-07T19:44:23.489Z,12.10
2023-03-07T19:46:51.190Z,10.98
2023-03-07T19:49:20.596Z,10.45
2023-03-07T19:51:48.890Z,10.43
2023-03-07T19:54:16.628Z,11.90
2023-03-07T19:56:45.547Z,11.93
2023-03-07T19:59:13.795Z,12.23
2023-03-07T20:01:41.540Z,13.70
2023-03-07T20:04:10.233Z,12.52
2023-03-07T20:06:42.160Z,13.63
2023-03-07T20:09:12.832Z,13.98
2023-03-07T20:11:43.183Z,13.23
2023-03-07T20:14:12.458Z,12.98
2023-03-07T20:16:40.143Z,12.95
2023-03-07T20:19:10.068Z,15.07
2023-03-07T20:21:42.127Z,20.95
2023-03-07T20:24:10.172Z,20.23
2023-03-07T20:26:39.481Z,16.33
2023-03-07T20:29:08.547Z,14.95
2023-03-07T20:31:36.787Z,14.25
2023-03-07T20:34:05.214Z,13.93
2023-03-07T20:36:34.739Z,13.60
2023-03-07T20:39:07.641Z,15.63
2023-03-07T20:41:35.500Z,17.15
2023-03-07T20:44:05.661Z,15.15
2023-03-07T20:46:34.437Z,13.35
2023-03-07T20:49:03.061Z,14.57
2023-03-07T20:51:34.534Z,14.00
2023-03-07T20:54:06.236Z,13.85
2023-03-07T20:56:35.853Z,14.02
2023-03-07T20:59:03.689Z,13.70
2023-03-07T21:01:33.469Z,13.43
2023-03-07T21:04:06.106Z,13.13
2023-03-07T21:06:37.610Z,13.40
2023-03-07T21:09:10.098Z,12.75
2023-03-07T21:11:40.054Z,13.15
2023-03-07T21:14:08.296Z,12.38
2023-03-07T21:16:36.044Z,12.57
2023-03-07T21:19:06.010Z,12.25
2023-03-07T21:21:37.936Z,13.43
2023-03-07T21:24:08.489Z,13.27
2023-03-07T21:26:36.958Z,11.45
2023-03-07T21:29:08.819Z,13.38
2023-03-07T21:31:38.552Z,12.85
2023-03-07T21:34:08.660Z,14.20
2023-03-07T21:36:39.415Z,14.68
2023-03-07T21:39:09.898Z,13.48
2023-03-07T21:41:38.141Z,14.45
2023-03-07T21:44:06.077Z,13.55
2023-03-07T21:46:33.910Z,13.82
2023-03-07T21:49:02.733Z,12.55
2023-03-07T21:51:30.413Z,14.25
2023-03-07T21:53:58.952Z,14.20
2023-03-07T21:56:28.109Z,14.85
2023-03-07T21:58:55.829Z,14.00
2023-03-07T22:01:26.401Z,14.65
2023-03-07T22:03:55.292Z,14.13
2023-03-07T22:06:25.143Z,14.50
2023-03-07T22:08:52.854Z,14.30
2023-03-07T22:11:20.669Z,13.60
2023-03-07T22:13:50.002Z,14.57
2023-03-07T22:16:21.319Z,13.80
2023-03-07T22:18:55.944Z,13.55
2023-03-07T22:21:25.972Z,14.00
2023-03-07T22:23:57.510Z,13.55
2023-03-07T22:26:25.337Z,12.93
2023-03-07T22:28:55.096Z,13.35
2023-03-07T22:31:22.899Z,13.98
2023-03-07T22:33:50.605Z,13.90
2023-03-07T22:36:18.310Z,13.63
2023-03-07T22:38:45.983Z,14.80
2023-03-07T22:41:15.997Z,13.50
2023-03-07T22:43:43.893Z,14.63
2023-03-07T22:46:13.440Z,15.10
2023-03-07T22:48:41.842Z,14.38
2023-03-07T22:51:13.255Z,15.23
2023-03-07T22:53:40.933Z,14.23
2023-03-07T23:02:51.876Z,14.98
2023-03-07T23:05:23.064Z,15.65
2023-03-07T23:07:50.747Z,14.10
2023-03-07T23:10:18.687Z,13.63
2023-03-07T23:12:46.421Z,15.60
2023-03-07T23:15:14.060Z,14.32
2023-03-07T23:17:44.025Z,15.05
2023-03-07T23:20:12.715Z,14.25
2023-03-07T23:22:45.389Z,13.90
2023-03-07T23:25:16.500Z,14.38
2023-03-07T23:27:44.172Z,15.07
2023-03-07T23:30:12.450Z,14.45
2023-03-07T23:32:40.168Z,14.35
2023-03-07T23:35:10.144Z,14.80
2023-03-07T23:37:37.786Z,14.70
2023-03-07T23:40:06.663Z,13.70
2023-03-07T23:42:34.576Z,13.50
2023-03-07T23:45:02.217Z,12.60
2023-03-07T23:47:29.874Z,12.48
2023-03-07T23:49:57.488Z,13.27
2023-03-07T23:52:26.497Z,12.90
2023-03-07T23:54:54.175Z,12.63
2023-03-07T23:57:21.837Z,12.52
2023-03-07T23:59:50.164Z,12.68
